sensor_id;sensor_type;location;lat;lon;timestamp;P1;durP1;ratioP1;P2;durP2;ratioP2
49015;SDS011;34830;44.064;12.566;2023-07-02T00:00:10;9.43;;;6.20;;
49015;SDS011;34830;44.064;12.566;2023-07-02T00:02:36;7.90;;;5.53;;
49015;SDS011;34830;44.064;12.566;2023-07-02T00:05:02;12.93;;;6.65;;
49015;SDS011;34830;44.064;12.566;2023-07-02T00:07:28;8.80;;;5.25;;
49015;SDS011;34830;44.064;12.566;2023-07-02T00:09:54;7.75;;;5.60;;
49015;SDS011;34830;44.064;12.566;2023-07-02T00:12:20;10.95;;;6.22;;
49015;SDS011;34830;44.064;12.566;2023-07-02T00:14:45;7.80;;;5.15;;
49015;SDS011;34830;44.064;12.566;2023-07-02T00:17:11;7.75;;;5.25;;
49015;SDS011;34830;44.064;12.566;2023-07-02T00:19:40;8.82;;;5.10;;
49015;SDS011;34830;44.064;12.566;2023-07-02T00:22:07;7.78;;;5.03;;
49015;SDS011;34830;44.064;12.566;2023-07-02T00:24:33;8.93;;;5.97;;
49015;SDS011;34830;44.064;12.566;2023-07-02T00:27:00;11.63;;;5.80;;
49015;SDS011;34830;44.064;12.566;2023-07-02T00:29:26;8.55;;;5.07;;
49015;SDS011;34830;44.064;12.566;2023-07-02T00:31:51;10.18;;;5.15;;
49015;SDS011;34830;44.064;12.566;2023-07-02T00:34:18;8.95;;;4.85;;
49015;SDS011;34830;44.064;12.566;2023-07-02T00:36:43;9.00;;;5.32;;
49015;SDS011;34830;44.064;12.566;2023-07-02T00:39:09;10.27;;;6.10;;
49015;SDS011;34830;44.064;12.566;2023-07-02T00:41:37;7.07;;;4.68;;
49015;SDS011;34830;44.064;12.566;2023-07-02T00:44:03;6.85;;;4.50;;
49015;SDS011;34830;44.064;12.566;2023-07-02T00:46:29;8.05;;;4.40;;
49015;SDS011;34830;44.064;12.566;2023-07-02T00:48:56;8.15;;;4.55;;
49015;SDS011;34830;44.064;12.566;2023-07-02T00:51:23;8.68;;;5.25;;
49015;SDS011;34830;44.064;12.566;2023-07-02T00:53:49;7.65;;;4.63;;
49015;SDS011;34830;44.064;12.566;2023-07-02T00:56:15;10.00;;;4.50;;
49015;SDS011;34830;44.064;12.566;2023-07-02T00:58:42;8.38;;;4.47;;
49015;SDS011;34830;44.064;12.566;2023-07-02T01:01:16;7.22;;;4.57;;
49015;SDS011;34830;44.064;12.566;2023-07-02T01:03:52;7.57;;;4.57;;
49015;SDS011;34830;44.064;12.566;2023-07-02T01:06:22;8.77;;;4.93;;
49015;SDS011;34830;44.064;12.566;2023-07-02T01:08:57;6.10;;;4.32;;
49015;SDS011;34830;44.064;12.566;2023-07-02T01:11:25;9.63;;;5.50;;
49015;SDS011;34830;44.064;12.566;2023-07-02T01:13:52;10.93;;;5.03;;
49015;SDS011;34830;44.064;12.566;2023-07-02T01:16:19;9.35;;;5.43;;
49015;SDS011;34830;44.064;12.566;2023-07-02T01:18:45;7.70;;;4.65;;
49015;SDS011;34830;44.064;12.566;2023-07-02T01:21:11;8.15;;;4.90;;
49015;SDS011;34830;44.064;12.566;2023-07-02T01:23:37;7.85;;;4.65;;
49015;SDS011;34830;44.064;12.566;2023-07-02T01:26:03;8.45;;;4.60;;
49015;SDS011;34830;44.064;12.566;2023-07-02T01:28:34;7.30;;;5.05;;
49015;SDS011;34830;44.064;12.566;2023-07-02T01:31:00;11.23;;;5.22;;
49015;SDS011;34830;44.064;12.566;2023-07-02T01:33:26;9.45;;;4.97;;
49015;SDS011;34830;44.064;12.566;2023-07-02T01:35:51;8.07;;;4.72;;
49015;SDS011;34830;44.064;12.566;2023-07-02T01:38:17;8.18;;;4.90;;
49015;SDS011;34830;44.064;12.566;2023-07-02T01:40:43;8.48;;;4.85;;
49015;SDS011;34830;44.064;12.566;2023-07-02T01:43:09;9.13;;;4.85;;
49015;SDS011;34830;44.064;12.566;2023-07-02T01:45:35;7.45;;;4.82;;
49015;SDS011;34830;44.064;12.566;2023-07-02T01:48:02;8.88;;;4.85;;
49015;SDS011;34830;44.064;12.566;2023-07-02T01:50:27;7.78;;;4.28;;
49015;SDS011;34830;44.064;12.566;2023-07-02T01:52:53;9.32;;;4.68;;
49015;SDS011;34830;44.064;12.566;2023-07-02T01:55:19;8.57;;;5.28;;
49015;SDS011;34830;44.064;12.566;2023-07-02T01:57:45;7.57;;;4.57;;
49015;SDS011;34830;44.064;12.566;2023-07-02T02:00:11;6.60;;;4.55;;
49015;SDS011;34830;44.064;12.566;2023-07-02T02:02:42;11.85;;;4.88;;
49015;SDS011;34830;44.064;12.566;2023-07-02T02:05:08;8.52;;;5.03;;
49015;SDS011;34830;44.064;12.566;2023-07-02T02:07:38;11.18;;;5.25;;
49015;SDS011;34830;44.064;12.566;2023-07-02T02:10:03;9.32;;;4.80;;
49015;SDS011;34830;44.064;12.566;2023-07-02T02:12:30;8.52;;;4.57;;
49015;SDS011;34830;44.064;12.566;2023-07-02T02:14:56;10.00;;;5.05;;
49015;SDS011;34830;44.064;12.566;2023-07-02T02:17:22;16.60;;;5.82;;
49015;SDS011;34830;44.064;12.566;2023-07-02T02:19:49;14.32;;;5.63;;
49015;SDS011;34830;44.064;12.566;2023-07-02T02:22:15;7.32;;;5.72;;
49015;SDS011;34830;44.064;12.566;2023-07-02T02:24:41;9.98;;;5.00;;
49015;SDS011;34830;44.064;12.566;2023-07-02T02:27:07;8.38;;;4.90;;
49015;SDS011;34830;44.064;12.566;2023-07-02T02:29:33;8.75;;;4.93;;
49015;SDS011;34830;44.064;12.566;2023-07-02T02:31:59;9.50;;;4.95;;
49015;SDS011;34830;44.064;12.566;2023-07-02T02:34:25;8.00;;;5.05;;
49015;SDS011;34830;44.064;12.566;2023-07-02T02:36:51;10.85;;;5.07;;
49015;SDS011;34830;44.064;12.566;2023-07-02T02:39:17;10.23;;;5.25;;
49015;SDS011;34830;44.064;12.566;2023-07-02T02:41:43;11.80;;;5.10;;
49015;SDS011;34830;44.064;12.566;2023-07-02T02:44:12;8.05;;;4.95;;
49015;SDS011;34830;44.064;12.566;2023-07-02T02:46:38;8.32;;;5.57;;
49015;SDS011;34830;44.064;12.566;2023-07-02T02:49:04;9.35;;;5.40;;
49015;SDS011;34830;44.064;12.566;2023-07-02T02:51:30;8.25;;;4.93;;
49015;SDS011;34830;44.064;12.566;2023-07-02T02:53:56;9.18;;;4.85;;
49015;SDS011;34830;44.064;12.566;2023-07-02T02:56:21;8.93;;;5.45;;
49015;SDS011;34830;44.064;12.566;2023-07-02T02:58:47;9.02;;;5.22;;
49015;SDS011;34830;44.064;12.566;2023-07-02T03:01:13;7.95;;;5.00;;
49015;SDS011;34830;44.064;12.566;2023-07-02T03:03:41;10.02;;;5.60;;
49015;SDS011;34830;44.064;12.566;2023-07-02T03:06:14;8.60;;;5.10;;
49015;SDS011;34830;44.064;12.566;2023-07-02T03:08:40;8.13;;;4.35;;
49015;SDS011;34830;44.064;12.566;2023-07-02T03:11:06;7.20;;;5.10;;
49015;SDS011;34830;44.064;12.566;2023-07-02T03:13:32;6.97;;;4.70;;
49015;SDS011;34830;44.064;12.566;2023-07-02T03:15:58;10.55;;;5.43;;
49015;SDS011;34830;44.064;12.566;2023-07-02T03:18:24;6.70;;;4.75;;
49015;SDS011;34830;44.064;12.566;2023-07-02T03:20:50;7.90;;;4.80;;
49015;SDS011;34830;44.064;12.566;2023-07-02T03:23:15;8.48;;;5.60;;
49015;SDS011;34830;44.064;12.566;2023-07-02T03:25:41;9.98;;;5.85;;
49015;SDS011;34830;44.064;12.566;2023-07-02T03:28:07;9.52;;;5.00;;
49015;SDS011;34830;44.064;12.566;2023-07-02T03:30:33;10.10;;;5.03;;
49015;SDS011;34830;44.064;12.566;2023-07-02T03:32:58;10.85;;;4.88;;
49015;SDS011;34830;44.064;12.566;2023-07-02T03:35:24;10.18;;;5.72;;
49015;SDS011;34830;44.064;12.566;2023-07-02T03:37:50;10.38;;;4.82;;
49015;SDS011;34830;44.064;12.566;2023-07-02T03:40:16;7.32;;;5.13;;
49015;SDS011;34830;44.064;12.566;2023-07-02T03:42:43;9.70;;;4.93;;
49015;SDS011;34830;44.064;12.566;2023-07-02T03:45:08;8.15;;;5.10;;
49015;SDS011;34830;44.064;12.566;2023-07-02T03:47:34;7.90;;;5.13;;
49015;SDS011;34830;44.064;12.566;2023-07-02T03:50:00;12.10;;;5.70;;
49015;SDS011;34830;44.064;12.566;2023-07-02T03:52:26;7.32;;;4.80;;
49015;SDS011;34830;44.064;12.566;2023-07-02T03:54:52;9.45;;;4.88;;
49015;SDS011;34830;44.064;12.566;2023-07-02T03:57:17;7.97;;;4.82;;
49015;SDS011;34830;44.064;12.566;2023-07-02T03:59:43;10.32;;;5.07;;
49015;SDS011;34830;44.064;12.566;2023-07-02T04:02:09;9.50;;;4.93;;
49015;SDS011;34830;44.064;12.566;2023-07-02T04:04:35;7.97;;;4.47;;
49015;SDS011;34830;44.064;12.566;2023-07-02T04:07:00;7.38;;;4.63;;
49015;SDS011;34830;44.064;12.566;2023-07-02T04:09:26;10.30;;;4.95;;
49015;SDS011;34830;44.064;12.566;2023-07-02T04:11:52;7.47;;;4.88;;
49015;SDS011;34830;44.064;12.566;2023-07-02T04:14:18;8.20;;;4.95;;
49015;SDS011;34830;44.064;12.566;2023-07-02T04:16:43;7.95;;;4.43;;
49015;SDS011;34830;44.064;12.566;2023-07-02T04:19:10;9.00;;;5.00;;
49015;SDS011;34830;44.064;12.566;2023-07-02T04:21:36;8.25;;;5.13;;
49015;SDS011;34830;44.064;12.566;2023-07-02T04:24:01;9.75;;;4.50;;
49015;SDS011;34830;44.064;12.566;2023-07-02T04:26:27;10.43;;;5.13;;
49015;SDS011;34830;44.064;12.566;2023-07-02T04:28:56;7.18;;;5.07;;
49015;SDS011;34830;44.064;12.566;2023-07-02T04:31:22;7.30;;;5.03;;
49015;SDS011;34830;44.064;12.566;2023-07-02T04:33:48;7.43;;;4.75;;
49015;SDS011;34830;44.064;12.566;2023-07-02T04:36:14;11.77;;;5.15;;
49015;SDS011;34830;44.064;12.566;2023-07-02T04:38:40;9.57;;;5.05;;
49015;SDS011;34830;44.064;12.566;2023-07-02T04:41:05;9.85;;;5.30;;
49015;SDS011;34830;44.064;12.566;2023-07-02T04:43:32;7.35;;;5.15;;
49015;SDS011;34830;44.064;12.566;2023-07-02T04:45:58;7.72;;;4.90;;
49015;SDS011;34830;44.064;12.566;2023-07-02T04:48:24;10.63;;;5.53;;
49015;SDS011;34830;44.064;12.566;2023-07-02T04:50:50;9.63;;;5.43;;
49015;SDS011;34830;44.064;12.566;2023-07-02T04:53:15;10.07;;;4.93;;
49015;SDS011;34830;44.064;12.566;2023-07-02T04:55:41;8.77;;;5.03;;
49015;SDS011;34830;44.064;12.566;2023-07-02T04:58:07;12.05;;;5.47;;
49015;SDS011;34830;44.064;12.566;2023-07-02T05:00:33;9.32;;;5.68;;
49015;SDS011;34830;44.064;12.566;2023-07-02T05:02:59;11.15;;;5.65;;
49015;SDS011;34830;44.064;12.566;2023-07-02T05:05:24;9.88;;;5.22;;
49015;SDS011;34830;44.064;12.566;2023-07-02T05:07:50;11.50;;;5.85;;
49015;SDS011;34830;44.064;12.566;2023-07-02T05:10:16;6.50;;;4.65;;
49015;SDS011;34830;44.064;12.566;2023-07-02T05:12:42;8.35;;;4.22;;
49015;SDS011;34830;44.064;12.566;2023-07-02T05:15:08;11.57;;;5.05;;
49015;SDS011;34830;44.064;12.566;2023-07-02T05:17:33;7.13;;;4.68;;
49015;SDS011;34830;44.064;12.566;2023-07-02T05:20:02;13.63;;;5.60;;
49015;SDS011;34830;44.064;12.566;2023-07-02T05:22:28;7.78;;;4.95;;
49015;SDS011;34830;44.064;12.566;2023-07-02T05:24:54;10.00;;;5.28;;
49015;SDS011;34830;44.064;12.566;2023-07-02T05:27:20;7.57;;;5.57;;
49015;SDS011;34830;44.064;12.566;2023-07-02T05:29:45;12.52;;;5.55;;
49015;SDS011;34830;44.064;12.566;2023-07-02T05:32:12;8.23;;;5.10;;
49015;SDS011;34830;44.064;12.566;2023-07-02T05:34:37;7.38;;;4.55;;
49015;SDS011;34830;44.064;12.566;2023-07-02T05:37:03;7.50;;;4.97;;
49015;SDS011;34830;44.064;12.566;2023-07-02T05:39:29;7.38;;;4.28;;
49015;SDS011;34830;44.064;12.566;2023-07-02T05:41:56;7.15;;;4.70;;
49015;SDS011;34830;44.064;12.566;2023-07-02T05:44:21;6.35;;;4.20;;
49015;SDS011;34830;44.064;12.566;2023-07-02T05:46:47;10.30;;;4.40;;
49015;SDS011;34830;44.064;12.566;2023-07-02T05:49:13;9.80;;;4.78;;
49015;SDS011;34830;44.064;12.566;2023-07-02T05:51:39;6.90;;;4.28;;
49015;SDS011;34830;44.064;12.566;2023-07-02T05:54:04;6.53;;;4.45;;
49015;SDS011;34830;44.064;12.566;2023-07-02T05:56:30;6.70;;;4.63;;
49015;SDS011;34830;44.064;12.566;2023-07-02T05:58:56;8.38;;;4.32;;
49015;SDS011;34830;44.064;12.566;2023-07-02T06:01:22;7.57;;;4.38;;
49015;SDS011;34830;44.064;12.566;2023-07-02T06:03:51;7.95;;;4.10;;
49015;SDS011;34830;44.064;12.566;2023-07-02T06:06:16;9.48;;;4.45;;
49015;SDS011;34830;44.064;12.566;2023-07-02T06:08:42;8.13;;;7.18;;
49015;SDS011;34830;44.064;12.566;2023-07-02T06:11:09;6.65;;;4.28;;
49015;SDS011;34830;44.064;12.566;2023-07-02T06:13:35;7.15;;;3.83;;
49015;SDS011;34830;44.064;12.566;2023-07-02T06:16:01;8.35;;;3.75;;
49015;SDS011;34830;44.064;12.566;2023-07-02T06:18:27;5.85;;;3.60;;
49015;SDS011;34830;44.064;12.566;2023-07-02T06:20:52;5.95;;;3.90;;
49015;SDS011;34830;44.064;12.566;2023-07-02T06:23:18;7.95;;;4.05;;
49015;SDS011;34830;44.064;12.566;2023-07-02T06:25:44;6.28;;;3.42;;
49015;SDS011;34830;44.064;12.566;2023-07-02T06:28:10;5.72;;;3.35;;
49015;SDS011;34830;44.064;12.566;2023-07-02T06:30:36;6.32;;;3.55;;
49015;SDS011;34830;44.064;12.566;2023-07-02T06:33:01;5.25;;;3.10;;
49015;SDS011;34830;44.064;12.566;2023-07-02T06:35:27;5.38;;;3.90;;
49015;SDS011;34830;44.064;12.566;2023-07-02T06:37:53;7.40;;;3.92;;
49015;SDS011;34830;44.064;12.566;2023-07-02T06:40:20;7.63;;;3.22;;
49015;SDS011;34830;44.064;12.566;2023-07-02T06:42:45;9.45;;;4.10;;
49015;SDS011;34830;44.064;12.566;2023-07-02T06:45:11;7.72;;;4.00;;
49015;SDS011;34830;44.064;12.566;2023-07-02T06:47:37;7.00;;;3.58;;
49015;SDS011;34830;44.064;12.566;2023-07-02T06:50:03;7.32;;;3.58;;
49015;SDS011;34830;44.064;12.566;2023-07-02T06:52:29;5.15;;;3.75;;
49015;SDS011;34830;44.064;12.566;2023-07-02T06:54:55;4.93;;;3.55;;
49015;SDS011;34830;44.064;12.566;2023-07-02T06:57:20;5.38;;;3.50;;
49015;SDS011;34830;44.064;12.566;2023-07-02T06:59:46;5.22;;;4.13;;
49015;SDS011;34830;44.064;12.566;2023-07-02T07:02:12;7.85;;;3.53;;
49015;SDS011;34830;44.064;12.566;2023-07-02T07:04:38;6.75;;;4.28;;
49015;SDS011;34830;44.064;12.566;2023-07-02T07:07:03;5.22;;;3.63;;
49015;SDS011;34830;44.064;12.566;2023-07-02T07:09:29;7.25;;;3.78;;
49015;SDS011;34830;44.064;12.566;2023-07-02T07:11:55;5.00;;;3.70;;
49015;SDS011;34830;44.064;12.566;2023-07-02T07:14:21;4.43;;;3.20;;
49015;SDS011;34830;44.064;12.566;2023-07-02T07:16:47;5.93;;;4.07;;
49015;SDS011;34830;44.064;12.566;2023-07-02T07:19:13;5.03;;;3.78;;
49015;SDS011;34830;44.064;12.566;2023-07-02T07:21:39;6.70;;;3.72;;
49015;SDS011;34830;44.064;12.566;2023-07-02T07:24:05;5.45;;;4.07;;
49015;SDS011;34830;44.064;12.566;2023-07-02T07:26:32;4.22;;;3.42;;
49015;SDS011;34830;44.064;12.566;2023-07-02T07:28:57;6.75;;;4.22;;
49015;SDS011;34830;44.064;12.566;2023-07-02T07:31:23;7.40;;;4.25;;
49015;SDS011;34830;44.064;12.566;2023-07-02T07:33:49;6.28;;;4.07;;
49015;SDS011;34830;44.064;12.566;2023-07-02T07:36:15;6.32;;;4.13;;
49015;SDS011;34830;44.064;12.566;2023-07-02T07:38:42;4.82;;;3.53;;
49015;SDS011;34830;44.064;12.566;2023-07-02T07:41:08;6.70;;;3.75;;
49015;SDS011;34830;44.064;12.566;2023-07-02T07:43:34;5.88;;;4.20;;
49015;SDS011;34830;44.064;12.566;2023-07-02T07:46:00;6.18;;;3.28;;
49015;SDS011;34830;44.064;12.566;2023-07-02T07:48:25;4.63;;;3.80;;
49015;SDS011;34830;44.064;12.566;2023-07-02T07:50:51;6.38;;;3.75;;
49015;SDS011;34830;44.064;12.566;2023-07-02T07:53:17;7.47;;;4.07;;
49015;SDS011;34830;44.064;12.566;2023-07-02T07:55:43;6.13;;;3.95;;
49015;SDS011;34830;44.064;12.566;2023-07-02T07:58:09;6.45;;;4.25;;
49015;SDS011;34830;44.064;12.566;2023-07-02T08:00:34;7.05;;;4.10;;
49015;SDS011;34830;44.064;12.566;2023-07-02T08:03:00;7.10;;;3.97;;
49015;SDS011;34830;44.064;12.566;2023-07-02T08:05:28;6.97;;;3.95;;
49015;SDS011;34830;44.064;12.566;2023-07-02T08:07:55;8.05;;;4.60;;
49015;SDS011;34830;44.064;12.566;2023-07-02T08:10:21;8.93;;;4.53;;
49015;SDS011;34830;44.064;12.566;2023-07-02T08:12:46;8.20;;;4.72;;
49015;SDS011;34830;44.064;12.566;2023-07-02T08:15:13;7.68;;;4.43;;
49015;SDS011;34830;44.064;12.566;2023-07-02T08:17:39;6.93;;;4.00;;
49015;SDS011;34830;44.064;12.566;2023-07-02T08:20:05;6.05;;;4.10;;
49015;SDS011;34830;44.064;12.566;2023-07-02T08:22:35;7.15;;;4.00;;
49015;SDS011;34830;44.064;12.566;2023-07-02T08:25:02;8.07;;;4.75;;
49015;SDS011;34830;44.064;12.566;2023-07-02T08:27:27;9.88;;;5.55;;
49015;SDS011;34830;44.064;12.566;2023-07-02T08:29:53;7.88;;;4.93;;
49015;SDS011;34830;44.064;12.566;2023-07-02T08:32:19;9.55;;;5.40;;
49015;SDS011;34830;44.064;12.566;2023-07-02T08:34:45;8.90;;;4.82;;
49015;SDS011;34830;44.064;12.566;2023-07-02T08:37:11;15.25;;;4.50;;
49015;SDS011;34830;44.064;12.566;2023-07-02T08:39:37;8.95;;;4.80;;
49015;SDS011;34830;44.064;12.566;2023-07-02T08:42:05;8.00;;;4.70;;
49015;SDS011;34830;44.064;12.566;2023-07-02T08:44:31;6.80;;;4.60;;
49015;SDS011;34830;44.064;12.566;2023-07-02T08:46:56;7.03;;;4.50;;
49015;SDS011;34830;44.064;12.566;2023-07-02T08:49:22;7.72;;;4.47;;
49015;SDS011;34830;44.064;12.566;2023-07-02T08:51:48;8.55;;;5.15;;
49015;SDS011;34830;44.064;12.566;2023-07-02T08:54:14;7.15;;;4.47;;
49015;SDS011;34830;44.064;12.566;2023-07-02T08:56:42;18.17;;;4.80;;
49015;SDS011;34830;44.064;12.566;2023-07-02T08:59:08;7.18;;;4.30;;
49015;SDS011;34830;44.064;12.566;2023-07-02T09:01:50;6.60;;;4.47;;
49015;SDS011;34830;44.064;12.566;2023-07-02T09:06:42;7.55;;;5.47;;
49015;SDS011;34830;44.064;12.566;2023-07-02T09:09:08;6.07;;;4.43;;
49015;SDS011;34830;44.064;12.566;2023-07-02T09:11:34;6.10;;;4.60;;
49015;SDS011;34830;44.064;12.566;2023-07-02T09:14:00;7.75;;;4.57;;
49015;SDS011;34830;44.064;12.566;2023-07-02T09:16:27;7.45;;;4.82;;
49015;SDS011;34830;44.064;12.566;2023-07-02T09:19:04;12.18;;;5.30;;
49015;SDS011;34830;44.064;12.566;2023-07-02T09:21:43;8.73;;;5.57;;
49015;SDS011;34830;44.064;12.566;2023-07-02T09:29:11;9.30;;;5.30;;
49015;SDS011;34830;44.064;12.566;2023-07-02T09:31:44;8.23;;;5.07;;
49015;SDS011;34830;44.064;12.566;2023-07-02T09:34:10;8.57;;;6.22;;
49015;SDS011;34830;44.064;12.566;2023-07-02T09:36:36;7.88;;;5.65;;
49015;SDS011;34830;44.064;12.566;2023-07-02T09:39:13;9.75;;;5.15;;
49015;SDS011;34830;44.064;12.566;2023-07-02T09:41:42;7.80;;;5.65;;
49015;SDS011;34830;44.064;12.566;2023-07-02T09:44:08;6.97;;;5.50;;
49015;SDS011;34830;44.064;12.566;2023-07-02T09:46:41;7.93;;;5.20;;
49015;SDS011;34830;44.064;12.566;2023-07-02T09:49:10;10.10;;;6.75;;
49015;SDS011;34830;44.064;12.566;2023-07-02T09:51:39;8.40;;;5.72;;
49015;SDS011;34830;44.064;12.566;2023-07-02T09:54:05;9.60;;;5.93;;
49015;SDS011;34830;44.064;12.566;2023-07-02T09:56:31;8.40;;;5.50;;
49015;SDS011;34830;44.064;12.566;2023-07-02T09:58:57;7.93;;;5.85;;
49015;SDS011;34830;44.064;12.566;2023-07-02T10:01:23;9.93;;;6.03;;
49015;SDS011;34830;44.064;12.566;2023-07-02T10:03:49;11.88;;;5.80;;
49015;SDS011;34830;44.064;12.566;2023-07-02T10:06:14;10.82;;;5.90;;
49015;SDS011;34830;44.064;12.566;2023-07-02T10:08:40;9.10;;;5.90;;
49015;SDS011;34830;44.064;12.566;2023-07-02T10:11:07;11.75;;;6.35;;
49015;SDS011;34830;44.064;12.566;2023-07-02T10:13:33;10.52;;;5.50;;
49015;SDS011;34830;44.064;12.566;2023-07-02T10:16:02;9.68;;;5.68;;
49015;SDS011;34830;44.064;12.566;2023-07-02T10:18:28;10.65;;;5.88;;
49015;SDS011;34830;44.064;12.566;2023-07-02T10:20:54;8.70;;;5.78;;
49015;SDS011;34830;44.064;12.566;2023-07-02T10:23:20;10.90;;;5.47;;
49015;SDS011;34830;44.064;12.566;2023-07-02T10:25:46;10.80;;;5.95;;
49015;SDS011;34830;44.064;12.566;2023-07-02T10:28:17;10.60;;;5.78;;
49015;SDS011;34830;44.064;12.566;2023-07-02T10:30:44;7.55;;;5.55;;
49015;SDS011;34830;44.064;12.566;2023-07-02T10:33:11;9.93;;;6.00;;
49015;SDS011;34830;44.064;12.566;2023-07-02T10:35:37;13.63;;;6.20;;
49015;SDS011;34830;44.064;12.566;2023-07-02T10:38:04;7.55;;;5.78;;
49015;SDS011;34830;44.064;12.566;2023-07-02T10:40:31;8.02;;;4.85;;
49015;SDS011;34830;44.064;12.566;2023-07-02T10:42:58;9.15;;;5.28;;
49015;SDS011;34830;44.064;12.566;2023-07-02T10:45:31;8.40;;;5.63;;
49015;SDS011;34830;44.064;12.566;2023-07-02T10:47:58;10.85;;;6.07;;
49015;SDS011;34830;44.064;12.566;2023-07-02T10:50:24;9.38;;;5.60;;
49015;SDS011;34830;44.064;12.566;2023-07-02T10:52:51;6.85;;;5.05;;
49015;SDS011;34830;44.064;12.566;2023-07-02T10:55:20;6.78;;;5.35;;
49015;SDS011;34830;44.064;12.566;2023-07-02T10:57:46;8.40;;;5.60;;
49015;SDS011;34830;44.064;12.566;2023-07-02T11:00:12;8.13;;;5.97;;
49015;SDS011;34830;44.064;12.566;2023-07-02T11:02:38;7.20;;;5.30;;
49015;SDS011;34830;44.064;12.566;2023-07-02T11:05:05;10.02;;;5.72;;
49015;SDS011;34830;44.064;12.566;2023-07-02T11:07:43;8.82;;;5.60;;
49015;SDS011;34830;44.064;12.566;2023-07-02T11:10:09;9.43;;;5.88;;
49015;SDS011;34830;44.064;12.566;2023-07-02T11:12:35;10.52;;;5.88;;
49015;SDS011;34830;44.064;12.566;2023-07-02T11:17:34;10.45;;;6.38;;
49015;SDS011;34830;44.064;12.566;2023-07-02T11:19:59;7.38;;;5.47;;
49015;SDS011;34830;44.064;12.566;2023-07-02T11:22:35;7.03;;;5.57;;
49015;SDS011;34830;44.064;12.566;2023-07-02T11:25:15;8.10;;;5.50;;
49015;SDS011;34830;44.064;12.566;2023-07-02T11:27:41;8.30;;;5.82;;
49015;SDS011;34830;44.064;12.566;2023-07-02T11:30:07;7.22;;;5.30;;
49015;SDS011;34830;44.064;12.566;2023-07-02T11:32:35;8.43;;;5.32;;
49015;SDS011;34830;44.064;12.566;2023-07-02T11:35:01;6.35;;;4.75;;
49015;SDS011;34830;44.064;12.566;2023-07-02T11:37:26;7.07;;;4.95;;
49015;SDS011;34830;44.064;12.566;2023-07-02T11:39:53;8.40;;;5.13;;
49015;SDS011;34830;44.064;12.566;2023-07-02T11:42:19;7.03;;;4.72;;
49015;SDS011;34830;44.064;12.566;2023-07-02T11:44:47;7.60;;;4.57;;
49015;SDS011;34830;44.064;12.566;2023-07-02T11:47:12;6.63;;;4.75;;
49015;SDS011;34830;44.064;12.566;2023-07-02T11:49:38;8.30;;;5.45;;
49015;SDS011;34830;44.064;12.566;2023-07-02T11:52:04;7.18;;;5.15;;
49015;SDS011;34830;44.064;12.566;2023-07-02T11:54:30;5.93;;;4.38;;
49015;SDS011;34830;44.064;12.566;2023-07-02T11:56:56;7.72;;;4.68;;
49015;SDS011;34830;44.064;12.566;2023-07-02T11:59:22;8.75;;;4.88;;
49015;SDS011;34830;44.064;12.566;2023-07-02T12:01:48;8.68;;;4.43;;
49015;SDS011;34830;44.064;12.566;2023-07-02T12:04:14;6.00;;;4.07;;
49015;SDS011;34830;44.064;12.566;2023-07-02T12:06:39;7.57;;;4.32;;
49015;SDS011;34830;44.064;12.566;2023-07-02T12:09:05;7.70;;;5.30;;
49015;SDS011;34830;44.064;12.566;2023-07-02T12:11:31;7.15;;;5.30;;
49015;SDS011;34830;44.064;12.566;2023-07-02T12:13:57;8.32;;;4.70;;
49015;SDS011;34830;44.064;12.566;2023-07-02T12:16:22;7.13;;;5.20;;
49015;SDS011;34830;44.064;12.566;2023-07-02T12:18:48;7.30;;;5.05;;
49015;SDS011;34830;44.064;12.566;2023-07-02T12:21:14;7.78;;;4.50;;
49015;SDS011;34830;44.064;12.566;2023-07-02T12:23:42;7.07;;;4.63;;
49015;SDS011;34830;44.064;12.566;2023-07-02T12:26:08;7.45;;;4.43;;
49015;SDS011;34830;44.064;12.566;2023-07-02T12:28:33;7.03;;;4.38;;
49015;SDS011;34830;44.064;12.566;2023-07-02T12:30:59;6.68;;;4.43;;
49015;SDS011;34830;44.064;12.566;2023-07-02T12:33:25;7.85;;;4.07;;
49015;SDS011;34830;44.064;12.566;2023-07-02T12:35:51;5.85;;;4.07;;
49015;SDS011;34830;44.064;12.566;2023-07-02T12:38:16;6.38;;;4.13;;
49015;SDS011;34830;44.064;12.566;2023-07-02T12:40:42;5.88;;;4.18;;
49015;SDS011;34830;44.064;12.566;2023-07-02T12:43:08;9.70;;;4.18;;
49015;SDS011;34830;44.064;12.566;2023-07-02T12:45:34;7.15;;;4.47;;
49015;SDS011;34830;44.064;12.566;2023-07-02T12:47:59;6.88;;;4.03;;
49015;SDS011;34830;44.064;12.566;2023-07-02T12:50:25;7.40;;;4.00;;
49015;SDS011;34830;44.064;12.566;2023-07-02T12:52:51;7.50;;;4.18;;
49015;SDS011;34830;44.064;12.566;2023-07-02T12:55:17;8.13;;;4.10;;
49015;SDS011;34830;44.064;12.566;2023-07-02T12:57:42;6.70;;;3.85;;
49015;SDS011;34830;44.064;12.566;2023-07-02T13:00:08;6.45;;;4.15;;
49015;SDS011;34830;44.064;12.566;2023-07-02T13:02:34;8.88;;;3.88;;
49015;SDS011;34830;44.064;12.566;2023-07-02T13:05:00;6.53;;;4.45;;
49015;SDS011;34830;44.064;12.566;2023-07-02T13:07:26;10.32;;;3.75;;
49015;SDS011;34830;44.064;12.566;2023-07-02T13:09:51;6.35;;;4.13;;
49015;SDS011;34830;44.064;12.566;2023-07-02T13:12:17;5.43;;;3.33;;
49015;SDS011;34830;44.064;12.566;2023-07-02T13:14:43;5.75;;;3.60;;
49015;SDS011;34830;44.064;12.566;2023-07-02T13:17:09;7.45;;;3.63;;
49015;SDS011;34830;44.064;12.566;2023-07-02T13:19:35;11.60;;;6.35;;
49015;SDS011;34830;44.064;12.566;2023-07-02T13:22:01;7.25;;;3.80;;
49015;SDS011;34830;44.064;12.566;2023-07-02T13:24:36;6.60;;;4.32;;
49015;SDS011;34830;44.064;12.566;2023-07-02T13:27:02;7.75;;;3.63;;
49015;SDS011;34830;44.064;12.566;2023-07-02T13:29:30;7.57;;;3.55;;
49015;SDS011;34830;44.064;12.566;2023-07-02T13:31:56;5.72;;;3.80;;
49015;SDS011;34830;44.064;12.566;2023-07-02T13:34:21;6.32;;;3.78;;
49015;SDS011;34830;44.064;12.566;2023-07-02T13:36:47;5.80;;;4.15;;
49015;SDS011;34830;44.064;12.566;2023-07-02T13:39:13;6.63;;;4.00;;
49015;SDS011;34830;44.064;12.566;2023-07-02T13:41:39;7.30;;;4.22;;
49015;SDS011;34830;44.064;12.566;2023-07-02T13:44:04;7.70;;;3.75;;
49015;SDS011;34830;44.064;12.566;2023-07-02T13:46:30;7.38;;;3.80;;
49015;SDS011;34830;44.064;12.566;2023-07-02T13:48:56;16.80;;;4.10;;
49015;SDS011;34830;44.064;12.566;2023-07-02T13:51:22;6.57;;;3.80;;
49015;SDS011;34830;44.064;12.566;2023-07-02T13:53:48;4.85;;;3.35;;
49015;SDS011;34830;44.064;12.566;2023-07-02T13:56:13;5.30;;;3.60;;
49015;SDS011;34830;44.064;12.566;2023-07-02T13:58:47;6.38;;;3.70;;
49015;SDS011;34830;44.064;12.566;2023-07-02T14:01:13;7.22;;;4.20;;
49015;SDS011;34830;44.064;12.566;2023-07-02T14:03:38;6.15;;;4.07;;
49015;SDS011;34830;44.064;12.566;2023-07-02T14:06:04;8.02;;;4.05;;
49015;SDS011;34830;44.064;12.566;2023-07-02T14:08:30;7.50;;;4.05;;
49015;SDS011;34830;44.064;12.566;2023-07-02T14:10:56;7.28;;;3.65;;
49015;SDS011;34830;44.064;12.566;2023-07-02T14:13:22;8.32;;;3.80;;
49015;SDS011;34830;44.064;12.566;2023-07-02T14:15:47;5.72;;;3.78;;
49015;SDS011;34830;44.064;12.566;2023-07-02T14:18:13;8.02;;;4.05;;
49015;SDS011;34830;44.064;12.566;2023-07-02T14:20:39;5.03;;;3.30;;
49015;SDS011;34830;44.064;12.566;2023-07-02T14:23:05;7.15;;;3.63;;
49015;SDS011;34830;44.064;12.566;2023-07-02T14:25:32;7.15;;;3.60;;
49015;SDS011;34830;44.064;12.566;2023-07-02T14:27:58;5.95;;;3.67;;
49015;SDS011;34830;44.064;12.566;2023-07-02T14:30:23;6.53;;;3.70;;
49015;SDS011;34830;44.064;12.566;2023-07-02T14:32:49;6.72;;;3.95;;
49015;SDS011;34830;44.064;12.566;2023-07-02T14:35:15;5.20;;;3.67;;
49015;SDS011;34830;44.064;12.566;2023-07-02T14:37:41;6.72;;;3.50;;